메인 페이지
METAR-TAF:

METAR-TAF

공항 :

Nantucket, 매사추세츠, 미국

위도: 41-15-14N, 경도: 070-03-35W, 고도: 14m

현재 날씨관측

예보는 9분 전, 18:53시(UTC)에 발표되었습니다.
남남서4kt
온도 13°C
습도 94%
기압 1007 hPa
시정: 6.4km
고도 3800ft 상공 구름 많음
고도 4600ft 상공 흐림
약한비, 박무

METAR: KACK 231853Z 21004KT 4SM -RA BR BKN038 OVC046 13/12 A2974 RMK AO2 SLP071 P0002 T01280117

시각: 14:02 (19:02 UTC)

예보

예보는 1 시간 20분 전, 17:42시(UTC)에 발표되었습니다.
예보 대상 시간: 23일 18시부터 24일 18시까지 (UTC)
여러 방향의 바람 4kt
시정: 4.8km
고도 2600ft 상공 구름 조금
고도 3500ft 상공 구름 많음
고도 7000ft 상공 흐림
약한소나기, 박무
23일 2000시부터 (UTC)
서북서20kt, 순간 최대 풍속 31kt
시정: 3.2km
고도 1000ft 상공 흐림
소나기, 박무
23일 2200시부터 (UTC)
북서24kt, 순간 최대 풍속 34kt
시정: 10km
고도 12000ft 상공 흐림
시계 내 소나기
23일 2300시부터 (UTC)
북서25kt, 순간 최대 풍속 35kt
시정: 10km
고도 25000ft 상공 구름 많음
24일 0500시부터 (UTC)
북서24kt, 순간 최대 풍속 32kt
시정: 10km
맑음

TAF: KACK 231742Z 2318/2418 VRB04KT 3SM -SHRA BR FEW026 BKN035 OVC070 FM232000 30020G31KT 2SM SHRA BR OVC010 FM232200 31024G34KT P6SM VCSH OVC120 FM232300 31025G35KT P6SM BKN250 FM240500 31024G32KT P6SM SKC

4,000개 이상의 공항 관측 자료 및 예보 (METAR 및 TAF 보고).

지도상에서 검색 가능한 기상관측소가 노란 점과 빨간 점으로 표시되어 있습니다.

기상관측소 명을 보려면 표시 위로 마우스를 이동하세요.

날씨 관측과 예보를 보려면 클릭하세요.

지도 변경 : 확대하려면 엑스 표시가 있는 녹색 버튼, 축소하려면 빼기 표시가 있는 녹색 버튼, 다음 페이지의 지도를 보려면 녹색 화살표를 클릭하세요.


METAR-TAF: